createdAt,value
2019-03-09T00:01:25.986Z,5.05
2019-03-09T00:03:55.837Z,5.58
2019-03-09T00:06:25.657Z,6.33
2019-03-09T00:08:55.580Z,7.20
2019-03-09T00:11:25.471Z,4.95
2019-03-09T00:13:55.401Z,4.30
2019-03-09T00:16:25.261Z,3.42
2019-03-09T00:18:56.717Z,5.17
2019-03-09T00:21:26.514Z,4.72
2019-03-09T00:23:57.893Z,3.58
2019-03-09T00:26:36.516Z,4.67
2019-03-09T00:29:13.737Z,3.90
2019-03-09T00:31:47.907Z,4.58
2019-03-09T00:34:17.673Z,5.60
2019-03-09T00:36:47.606Z,3.22
2019-03-09T00:39:17.375Z,2.33
2019-03-09T00:41:47.241Z,4.83
2019-03-09T00:44:16.992Z,5.58
2019-03-09T00:46:48.828Z,2.22
2019-03-09T00:49:18.627Z,2.75
2019-03-09T00:51:48.367Z,2.85
2019-03-09T00:54:18.168Z,2.37
2019-03-09T00:56:47.882Z,3.80
2019-03-09T00:59:17.686Z,3.33
2019-03-09T01:01:47.469Z,1.93
2019-03-09T01:04:17.306Z,2.15
2019-03-09T01:06:47.177Z,2.65
2019-03-09T01:09:17.006Z,3.00
2019-03-09T01:11:46.775Z,2.20
2019-03-09T01:14:16.641Z,2.15
2019-03-09T01:16:46.510Z,2.02
2019-03-09T01:19:16.310Z,2.52
2019-03-09T01:21:46.040Z,2.02
2019-03-09T01:24:15.976Z,2.17
2019-03-09T01:26:45.820Z,2.98
2019-03-09T01:29:15.559Z,1.80
2019-03-09T01:31:45.328Z,2.08
2019-03-09T01:34:15.139Z,2.22
2019-03-09T01:36:44.886Z,2.65
2019-03-09T01:39:14.653Z,2.42
2019-03-09T01:41:44.461Z,2.70
2019-03-09T01:44:14.276Z,4.72
2019-03-09T01:46:44.196Z,3.72
2019-03-09T01:49:13.904Z,4.37
2019-03-09T01:51:43.765Z,4.90
2019-03-09T01:54:13.561Z,6.00
2019-03-09T01:56:43.269Z,7.33
2019-03-09T01:59:13.069Z,8.07
2019-03-09T02:01:44.232Z,6.58
2019-03-09T02:04:14.057Z,6.45
2019-03-09T02:06:45.611Z,7.33
2019-03-09T02:09:15.721Z,5.35
2019-03-09T02:11:45.536Z,7.90
2019-03-09T02:14:15.336Z,8.65
2019-03-09T02:16:45.165Z,8.83
2019-03-09T02:19:14.920Z,10.13
2019-03-09T02:21:44.728Z,11.60
2019-03-09T02:24:15.490Z,11.68
2019-03-09T02:26:45.431Z,13.85
2019-03-09T02:29:15.305Z,13.25
2019-03-09T02:31:45.132Z,12.03
2019-03-09T02:34:15.008Z,14.73
2019-03-09T02:36:44.768Z,11.45
2019-03-09T02:39:16.212Z,12.78
2019-03-09T02:41:46.100Z,11.70
2019-03-09T02:44:15.924Z,13.25
2019-03-09T02:46:45.809Z,13.57
2019-03-09T02:49:15.712Z,13.85
2019-03-09T02:51:45.540Z,12.45
2019-03-09T02:54:15.329Z,16.75
2019-03-09T02:56:45.222Z,12.03
2019-03-09T02:59:15.057Z,14.18
2019-03-09T03:01:52.379Z,15.65
2019-03-09T03:04:22.150Z,17.15
2019-03-09T03:06:51.904Z,14.58
2019-03-09T03:09:21.671Z,17.98
2019-03-09T03:11:51.468Z,15.55
2019-03-09T03:14:21.228Z,17.30
2019-03-09T03:16:50.942Z,17.40
2019-03-09T03:19:20.812Z,24.37
2019-03-09T03:21:50.561Z,19.48
2019-03-09T03:24:20.277Z,13.78
2019-03-09T03:26:50.124Z,14.60
2019-03-09T03:29:20.038Z,16.73
2019-03-09T03:31:49.915Z,15.50
2019-03-09T03:34:19.590Z,16.70
2019-03-09T03:36:51.438Z,20.37
2019-03-09T03:39:21.198Z,14.75
2019-03-09T03:41:51.087Z,20.15
2019-03-09T03:44:20.770Z,17.80
2019-03-09T03:46:50.744Z,21.67
2019-03-09T03:49:20.506Z,15.55
2019-03-09T03:51:50.270Z,14.50
2019-03-09T03:54:20.013Z,16.57
2019-03-09T03:56:51.973Z,16.77
2019-03-09T03:59:21.647Z,15.23
2019-03-09T04:01:51.436Z,16.45
2019-03-09T04:04:21.193Z,16.15
2019-03-09T04:06:51.176Z,16.30
2019-03-09T04:09:21.693Z,16.17
2019-03-09T04:11:51.705Z,23.20
2019-03-09T04:14:21.448Z,20.80
2019-03-09T04:16:51.454Z,20.27
2019-03-09T04:19:21.134Z,19.27
2019-03-09T04:21:50.955Z,17.87
2019-03-09T04:24:20.861Z,22.98
2019-03-09T04:26:50.704Z,14.23
2019-03-09T04:29:20.523Z,21.80
2019-03-09T04:31:50.509Z,19.23
2019-03-09T04:34:20.256Z,22.20
2019-03-09T04:36:53.104Z,17.70
2019-03-09T04:39:22.997Z,17.67
2019-03-09T04:41:54.335Z,17.00
2019-03-09T04:44:24.123Z,17.73
2019-03-09T04:46:54.996Z,15.40
2019-03-09T04:49:24.757Z,21.68
2019-03-09T04:51:54.564Z,20.17
2019-03-09T04:54:24.391Z,22.95
2019-03-09T04:56:54.247Z,19.87
2019-03-09T04:59:24.001Z,23.55
2019-03-09T05:01:53.824Z,26.25
2019-03-09T05:04:29.436Z,19.87
2019-03-09T05:06:59.280Z,23.77
2019-03-09T05:09:34.735Z,23.83
2019-03-09T05:12:04.539Z,24.90
2019-03-09T05:14:34.443Z,25.97
2019-03-09T05:17:04.209Z,22.42
2019-03-09T05:19:34.038Z,24.18
2019-03-09T05:22:03.885Z,21.80
2019-03-09T05:24:33.708Z,21.42
2019-03-09T05:27:03.570Z,22.20
2019-03-09T05:29:33.354Z,19.55
2019-03-09T05:32:04.626Z,17.62
2019-03-09T05:34:34.584Z,18.02
2019-03-09T05:37:04.566Z,20.10
2019-03-09T05:39:34.328Z,13.83
2019-03-09T05:42:04.116Z,15.28
2019-03-09T05:44:34.140Z,18.90
2019-03-09T05:47:04.037Z,18.85
2019-03-09T05:49:33.849Z,22.00
2019-03-09T05:52:21.457Z,22.55
2019-03-09T05:54:51.197Z,15.50
2019-03-09T05:57:20.878Z,14.38
2019-03-09T05:59:50.684Z,15.27
2019-03-09T06:02:20.498Z,15.88
2019-03-09T06:04:50.308Z,18.87
2019-03-09T06:07:20.162Z,16.48
2019-03-09T06:09:49.952Z,17.30
2019-03-09T06:12:19.832Z,19.80
2019-03-09T06:14:49.654Z,17.50
2019-03-09T06:17:19.407Z,18.77
2019-03-09T06:19:49.201Z,18.90
2019-03-09T06:22:19.075Z,19.07
2019-03-09T06:24:48.801Z,17.48
2019-03-09T06:27:18.685Z,18.85
2019-03-09T06:29:48.366Z,21.87
2019-03-09T06:32:36.446Z,25.43
2019-03-09T06:35:12.309Z,21.23
2019-03-09T06:37:45.094Z,24.43
2019-03-09T06:40:14.785Z,20.10
2019-03-09T06:42:47.162Z,22.30
2019-03-09T06:45:16.982Z,18.32
2019-03-09T06:47:46.870Z,22.00
2019-03-09T06:50:18.104Z,19.85
2019-03-09T06:52:47.856Z,22.23
2019-03-09T06:55:17.683Z,24.77
2019-03-09T06:57:47.528Z,23.47
2019-03-09T07:00:31.704Z,22.48
2019-03-09T07:03:02.606Z,19.32
2019-03-09T07:05:32.582Z,21.07
2019-03-09T07:08:02.617Z,25.40
2019-03-09T07:10:32.512Z,21.57
2019-03-09T07:13:02.355Z,20.72
2019-03-09T07:15:34.738Z,21.67
2019-03-09T07:18:07.381Z,22.77
2019-03-09T07:20:37.327Z,22.97
2019-03-09T07:23:10.047Z,25.07
2019-03-09T07:25:44.084Z,24.12
2019-03-09T07:28:14.782Z,25.30
2019-03-09T07:30:44.630Z,23.87
2019-03-09T07:33:14.394Z,24.67
2019-03-09T07:35:44.288Z,25.68
2019-03-09T07:38:14.165Z,32.90
2019-03-09T07:40:43.989Z,21.73
2019-03-09T07:43:13.843Z,29.05
2019-03-09T07:45:43.905Z,28.83
2019-03-09T07:48:13.882Z,25.90
2019-03-09T07:50:43.667Z,22.75
2019-03-09T07:53:13.413Z,30.27
2019-03-09T07:55:43.230Z,27.02
2019-03-09T07:58:13.136Z,34.30
2019-03-09T08:00:42.953Z,27.20
2019-03-09T08:03:13.458Z,27.87
2019-03-09T08:05:43.436Z,31.27
2019-03-09T08:08:13.422Z,30.23
2019-03-09T08:10:43.238Z,28.43
2019-03-09T08:13:13.131Z,33.15
2019-03-09T08:15:42.943Z,29.23
2019-03-09T08:18:12.798Z,32.33
2019-03-09T08:20:42.735Z,34.45
2019-03-09T08:23:12.491Z,24.90
2019-03-09T08:25:42.407Z,33.55
2019-03-09T08:28:12.214Z,33.42
2019-03-09T08:30:42.096Z,34.85
2019-03-09T08:33:11.933Z,31.33
2019-03-09T08:35:41.833Z,30.50
2019-03-09T08:38:11.705Z,36.05
2019-03-09T08:40:42.782Z,31.70
2019-03-09T08:43:12.828Z,37.13
2019-03-09T08:45:42.740Z,39.63
2019-03-09T08:48:12.583Z,38.63
2019-03-09T08:50:43.010Z,29.57
2019-03-09T08:53:12.888Z,38.05
2019-03-09T08:55:47.815Z,37.30
2019-03-09T08:58:14.335Z,37.38
2019-03-09T09:00:44.076Z,35.30
2019-03-09T09:03:13.817Z,39.13
2019-03-09T09:05:43.719Z,36.30
2019-03-09T09:08:13.649Z,34.45
2019-03-09T09:10:43.559Z,40.05
2019-03-09T09:13:13.382Z,37.17
2019-03-09T09:15:44.725Z,38.40
2019-03-09T09:18:14.609Z,33.28
2019-03-09T09:20:44.514Z,47.43
2019-03-09T09:23:14.402Z,40.80
2019-03-09T09:25:44.378Z,37.90
2019-03-09T09:28:14.243Z,37.08
2019-03-09T09:30:45.834Z,37.75
2019-03-09T09:33:15.776Z,36.45
2019-03-09T09:35:45.677Z,40.73
2019-03-09T09:38:15.574Z,41.23
2019-03-09T09:40:45.423Z,37.80
2019-03-09T09:43:15.287Z,39.63
2019-03-09T09:45:45.126Z,41.65
2019-03-09T09:48:15.060Z,45.28
2019-03-09T09:50:45.006Z,37.95
2019-03-09T09:53:14.858Z,33.92
2019-03-09T09:55:44.708Z,34.70
2019-03-09T09:58:14.639Z,36.40
2019-03-09T10:00:44.559Z,37.97
2019-03-09T10:03:14.368Z,41.75
2019-03-09T10:05:44.268Z,39.90
2019-03-09T10:08:14.106Z,39.38
2019-03-09T10:10:44.059Z,40.43
2019-03-09T10:13:13.930Z,40.28
2019-03-09T10:15:43.801Z,38.00
2019-03-09T10:18:13.665Z,41.13
2019-03-09T10:20:45.061Z,43.33
2019-03-09T10:23:15.104Z,42.88
2019-03-09T10:25:44.849Z,38.10
2019-03-09T10:28:14.856Z,42.98
2019-03-09T10:30:44.768Z,44.55
2019-03-09T10:33:14.581Z,35.33
2019-03-09T10:35:44.397Z,42.65
2019-03-09T10:38:15.266Z,41.90
2019-03-09T10:40:45.137Z,42.45
2019-03-09T10:43:14.956Z,44.03
2019-03-09T10:45:44.853Z,46.25
2019-03-09T10:48:14.687Z,44.60
2019-03-09T10:50:44.431Z,53.25
2019-03-09T10:53:14.198Z,47.17
2019-03-09T10:55:44.008Z,53.02
2019-03-09T10:58:13.763Z,53.73
2019-03-09T11:00:45.294Z,40.35
2019-03-09T11:03:16.162Z,42.20
2019-03-09T11:05:46.046Z,52.83
2019-03-09T11:08:15.926Z,47.62
2019-03-09T11:10:46.148Z,49.42
2019-03-09T11:13:15.951Z,51.30
2019-03-09T11:15:46.748Z,49.60
2019-03-09T11:18:18.705Z,45.45
2019-03-09T11:20:48.606Z,44.67
2019-03-09T11:23:18.492Z,42.73
2019-03-09T11:25:48.480Z,36.40
2019-03-09T11:28:18.398Z,35.30
2019-03-09T11:30:48.405Z,36.37
2019-03-09T11:33:18.894Z,41.05
2019-03-09T11:35:48.811Z,34.90
2019-03-09T11:38:18.733Z,38.67
2019-03-09T11:40:56.915Z,32.60
2019-03-09T11:43:20.123Z,33.30
2019-03-09T11:45:50.039Z,29.30
2019-03-09T11:48:19.882Z,29.15
2019-03-09T11:50:51.514Z,27.85
2019-03-09T11:53:21.420Z,28.77
2019-03-09T11:55:51.157Z,28.17
2019-03-09T11:58:21.185Z,26.27
2019-03-09T12:00:51.092Z,29.52
2019-03-09T12:03:21.008Z,29.35
2019-03-09T12:05:50.820Z,30.72
2019-03-09T12:08:20.839Z,24.77
2019-03-09T12:10:53.361Z,20.55
2019-03-09T12:13:23.269Z,25.92
2019-03-09T12:15:53.058Z,27.07
2019-03-09T12:18:22.926Z,24.23
2019-03-09T12:20:52.746Z,24.57
2019-03-09T12:23:23.768Z,26.93
2019-03-09T12:25:53.620Z,30.02
2019-03-09T12:28:24.493Z,26.95
2019-03-09T12:30:55.727Z,24.52
2019-03-09T12:33:26.088Z,22.67
2019-03-09T12:35:55.908Z,24.43
2019-03-09T12:38:25.733Z,20.43
2019-03-09T12:40:55.513Z,21.23
2019-03-09T12:43:25.417Z,20.77
2019-03-09T12:45:55.229Z,21.62
2019-03-09T12:48:25.116Z,23.10
2019-03-09T12:50:55.059Z,23.95
2019-03-09T12:53:24.942Z,23.20
2019-03-09T12:55:54.834Z,23.12
2019-03-09T12:58:28.138Z,23.85
2019-03-09T13:00:57.993Z,21.12
2019-03-09T13:03:27.758Z,28.40
2019-03-09T13:05:57.660Z,25.25
2019-03-09T13:08:27.563Z,23.12
2019-03-09T13:10:57.478Z,22.93
2019-03-09T13:13:27.357Z,24.40
2019-03-09T13:15:57.180Z,25.53
2019-03-09T13:18:26.943Z,23.50
2019-03-09T13:20:56.845Z,28.02
2019-03-09T13:23:26.729Z,26.30
2019-03-09T13:25:56.464Z,21.93
2019-03-09T13:28:26.420Z,24.77
2019-03-09T13:30:56.266Z,21.68
2019-03-09T13:33:26.121Z,21.77
2019-03-09T13:35:56.007Z,27.45
2019-03-09T13:38:25.819Z,30.08
2019-03-09T13:40:55.708Z,26.33
2019-03-09T13:43:25.517Z,24.72
2019-03-09T13:45:55.332Z,25.55
2019-03-09T13:48:27.178Z,27.53
2019-03-09T13:50:57.052Z,30.37
2019-03-09T13:53:26.983Z,32.77
2019-03-09T13:55:56.876Z,29.48
2019-03-09T13:58:26.759Z,28.32
2019-03-09T14:00:56.659Z,26.40
2019-03-09T14:03:26.496Z,31.97
2019-03-09T14:05:56.380Z,31.17
2019-03-09T14:08:27.192Z,29.48
2019-03-09T14:10:56.945Z,31.75
2019-03-09T14:13:26.699Z,32.55
2019-03-09T14:15:56.573Z,30.75
2019-03-09T14:18:44.328Z,36.05
2019-03-09T14:21:14.221Z,35.98
2019-03-09T14:23:43.980Z,31.27
2019-03-09T14:26:13.877Z,34.92
2019-03-09T14:28:43.713Z,34.00
2019-03-09T14:31:13.604Z,30.55
2019-03-09T14:33:43.372Z,30.88
2019-03-09T14:36:13.327Z,30.72
2019-03-09T14:39:01.538Z,29.30
2019-03-09T14:41:32.990Z,31.90
2019-03-09T14:44:02.709Z,34.77
2019-03-09T14:46:32.496Z,29.07
2019-03-09T14:49:02.340Z,27.30
2019-03-09T14:51:32.177Z,32.73
2019-03-09T14:54:02.055Z,31.25
2019-03-09T14:56:34.034Z,20.80
2019-03-09T14:59:03.949Z,16.48
2019-03-09T15:01:33.888Z,23.62
2019-03-09T15:04:03.924Z,25.20
2019-03-09T15:06:33.805Z,26.48
2019-03-09T15:09:04.763Z,22.32
2019-03-09T15:11:36.258Z,28.80
2019-03-09T15:14:06.078Z,27.05
2019-03-09T15:16:35.946Z,25.77
2019-03-09T15:19:05.753Z,20.82
2019-03-09T15:21:35.619Z,19.05
2019-03-09T15:24:05.460Z,21.82
2019-03-09T15:26:36.424Z,15.78
2019-03-09T15:29:06.315Z,15.83
2019-03-09T15:31:37.116Z,18.92
2019-03-09T15:34:06.872Z,20.30
2019-03-09T15:36:36.760Z,28.95
2019-03-09T15:39:08.593Z,28.10
2019-03-09T15:41:40.220Z,28.65
2019-03-09T15:44:10.105Z,21.95
2019-03-09T15:46:39.949Z,20.08
2019-03-09T15:49:10.344Z,28.67
2019-03-09T15:51:40.213Z,27.20
2019-03-09T15:54:10.056Z,26.20
2019-03-09T15:56:39.934Z,30.50
2019-03-09T15:59:09.728Z,24.87
2019-03-09T16:01:39.564Z,29.63
2019-03-09T16:04:09.620Z,21.02
2019-03-09T16:06:39.526Z,26.73
2019-03-09T16:09:09.505Z,27.73
2019-03-09T16:11:44.882Z,22.77
2019-03-09T16:14:10.888Z,24.00
2019-03-09T16:16:40.911Z,23.67
2019-03-09T16:19:10.776Z,24.18
2019-03-09T16:21:41.812Z,32.73
2019-03-09T16:24:12.384Z,26.63
2019-03-09T16:26:42.276Z,21.50
2019-03-09T16:29:13.252Z,21.33
2019-03-09T16:31:42.937Z,21.82
2019-03-09T16:34:12.832Z,34.40
2019-03-09T16:36:42.725Z,24.43
2019-03-09T16:39:13.469Z,23.98
2019-03-09T16:41:43.496Z,23.18
2019-03-09T16:44:13.304Z,23.20
2019-03-09T16:46:43.161Z,20.97
2019-03-09T16:49:13.001Z,20.50
2019-03-09T16:51:42.760Z,21.75
2019-03-09T16:54:12.544Z,20.37
2019-03-09T16:56:42.341Z,22.87
2019-03-09T16:59:12.240Z,28.38
2019-03-09T17:01:42.011Z,22.22
2019-03-09T17:04:11.812Z,23.18
2019-03-09T17:06:43.629Z,25.92
2019-03-09T17:09:13.473Z,30.02
2019-03-09T17:11:43.297Z,25.10
2019-03-09T17:14:13.197Z,26.73
2019-03-09T17:16:43.064Z,22.77
2019-03-09T17:19:13.480Z,24.70
2019-03-09T17:21:43.244Z,15.70
2019-03-09T17:24:13.125Z,21.23
2019-03-09T17:26:42.884Z,16.37
2019-03-09T17:29:12.850Z,19.75
2019-03-09T17:31:42.537Z,18.27
2019-03-09T17:34:12.366Z,20.12
2019-03-09T17:36:42.084Z,15.63
2019-03-09T17:39:12.028Z,19.87
2019-03-09T17:41:41.878Z,18.57
2019-03-09T17:44:11.870Z,23.67
2019-03-09T17:46:41.731Z,19.27
2019-03-09T17:49:12.557Z,20.57
2019-03-09T17:51:43.388Z,19.40
2019-03-09T17:54:13.213Z,24.87
2019-03-09T17:56:43.122Z,19.27
2019-03-09T17:59:13.019Z,20.92
2019-03-09T18:01:42.881Z,17.77
2019-03-09T18:04:12.679Z,19.73
2019-03-09T18:06:42.564Z,20.73
2019-03-09T18:09:12.376Z,20.37
2019-03-09T18:11:42.087Z,17.20
2019-03-09T18:14:11.939Z,18.17
2019-03-09T18:16:41.770Z,19.17
2019-03-09T18:19:11.669Z,19.82
2019-03-09T18:21:41.400Z,19.35
2019-03-09T18:24:11.177Z,18.23
2019-03-09T18:26:40.931Z,22.93
2019-03-09T18:29:11.827Z,19.77
2019-03-09T18:31:41.576Z,21.07
2019-03-09T18:34:11.410Z,21.40
2019-03-09T18:36:41.213Z,20.08
2019-03-09T18:39:11.044Z,24.27
2019-03-09T18:41:40.805Z,26.73
2019-03-09T18:44:10.535Z,21.95
2019-03-09T18:46:40.421Z,22.37
2019-03-09T18:49:11.251Z,22.45
2019-03-09T18:51:41.048Z,19.92
2019-03-09T18:54:10.814Z,18.70
2019-03-09T18:56:40.651Z,16.67
2019-03-09T18:59:10.324Z,23.22
2019-03-09T19:01:40.159Z,22.95
2019-03-09T19:04:10.056Z,18.80
2019-03-09T19:06:39.786Z,18.57
2019-03-09T19:09:09.672Z,17.45
2019-03-09T19:11:39.511Z,17.62
2019-03-09T19:14:09.321Z,18.37
2019-03-09T19:16:39.120Z,15.20
2019-03-09T19:19:09.001Z,13.08
2019-03-09T19:21:38.742Z,14.40
2019-03-09T19:24:08.662Z,18.32
2019-03-09T19:26:38.480Z,20.97
2019-03-09T19:29:08.373Z,14.73
2019-03-09T19:31:38.214Z,13.15
2019-03-09T19:34:08.030Z,11.30
2019-03-09T19:36:37.970Z,14.45
2019-03-09T19:39:07.790Z,14.83
2019-03-09T19:41:39.274Z,14.80
2019-03-09T19:44:09.077Z,16.20
2019-03-09T19:46:39.048Z,15.50
2019-03-09T19:49:08.840Z,19.05
2019-03-09T19:51:38.703Z,16.55
2019-03-09T19:54:08.651Z,14.83
2019-03-09T19:56:38.482Z,14.80
2019-03-09T19:59:08.488Z,17.80
2019-03-09T20:01:38.299Z,12.55
2019-03-09T20:04:08.185Z,15.35
2019-03-09T20:06:37.940Z,14.43
2019-03-09T20:09:09.320Z,15.90
2019-03-09T20:11:39.077Z,13.40
2019-03-09T20:14:08.817Z,12.05
2019-03-09T20:16:38.570Z,10.43
2019-03-09T20:19:08.470Z,17.98
2019-03-09T20:21:38.330Z,14.68
2019-03-09T20:24:09.220Z,15.25
2019-03-09T20:26:39.094Z,11.43
2019-03-09T20:29:08.958Z,14.70
2019-03-09T20:31:38.833Z,9.47
2019-03-09T20:34:08.708Z,10.82
2019-03-09T20:36:39.569Z,12.78
2019-03-09T20:39:09.389Z,17.73
2019-03-09T20:41:39.254Z,12.80
2019-03-09T20:44:10.006Z,17.15
2019-03-09T20:46:42.202Z,14.47
2019-03-09T20:49:11.345Z,8.88
2019-03-09T20:51:41.223Z,13.65
2019-03-09T20:54:11.029Z,10.65
2019-03-09T20:56:40.871Z,13.28
2019-03-09T20:59:10.699Z,17.32
2019-03-09T21:01:40.533Z,17.45
2019-03-09T21:04:10.424Z,14.98
2019-03-09T21:06:40.252Z,16.52
2019-03-09T21:09:10.062Z,12.13
2019-03-09T21:11:40.594Z,11.78
2019-03-09T21:14:10.448Z,11.68
2019-03-09T21:16:41.193Z,14.68
2019-03-09T21:19:13.064Z,13.15
2019-03-09T21:21:42.837Z,24.32
2019-03-09T21:24:12.572Z,21.73
2019-03-09T21:26:44.382Z,22.42
2019-03-09T21:29:14.217Z,19.98
2019-03-09T21:31:43.924Z,16.27
2019-03-09T21:34:13.750Z,12.60
2019-03-09T21:36:43.668Z,15.88
2019-03-09T21:39:13.657Z,16.57
2019-03-09T21:41:43.413Z,15.88
2019-03-09T21:44:13.326Z,11.33
2019-03-09T21:46:43.129Z,21.90
2019-03-09T21:49:12.937Z,20.35
2019-03-09T21:51:42.752Z,20.45
2019-03-09T21:54:12.564Z,19.80
2019-03-09T21:56:42.515Z,28.27
2019-03-09T21:59:12.258Z,26.35
2019-03-09T22:01:42.777Z,21.95
2019-03-09T22:04:12.600Z,19.25
2019-03-09T22:06:42.492Z,12.65
2019-03-09T22:09:12.293Z,22.57
2019-03-09T22:11:42.058Z,22.93
2019-03-09T22:14:11.897Z,20.40
2019-03-09T22:16:41.675Z,23.35
2019-03-09T22:19:11.472Z,21.23
2019-03-09T22:21:42.287Z,20.95
2019-03-09T22:24:12.537Z,20.55
2019-03-09T22:26:42.351Z,12.33
2019-03-09T22:29:12.116Z,16.02
2019-03-09T22:31:41.927Z,27.80
2019-03-09T22:34:11.671Z,21.55
2019-03-09T22:36:42.494Z,24.90
2019-03-09T22:39:12.242Z,26.90
2019-03-09T22:41:42.033Z,29.72
2019-03-09T22:44:11.750Z,23.07
2019-03-09T22:46:41.601Z,21.55
2019-03-09T22:49:11.380Z,25.90
2019-03-09T22:51:41.252Z,24.45
2019-03-09T22:54:11.022Z,32.93
2019-03-09T22:56:40.900Z,32.07
2019-03-09T22:59:11.693Z,32.88
2019-03-09T23:01:41.497Z,25.15
2019-03-09T23:04:11.259Z,27.98
2019-03-09T23:06:41.126Z,26.63
2019-03-09T23:09:10.903Z,27.70
2019-03-09T23:11:40.831Z,26.48
2019-03-09T23:14:10.712Z,23.87
2019-03-09T23:16:40.661Z,33.60
2019-03-09T23:19:10.483Z,29.23
2019-03-09T23:21:40.260Z,22.15
2019-03-09T23:24:10.124Z,21.07
2019-03-09T23:26:39.946Z,25.65
2019-03-09T23:29:09.704Z,27.83
2019-03-09T23:31:39.472Z,28.55
2019-03-09T23:34:09.284Z,31.90
2019-03-09T23:36:39.057Z,31.73
2019-03-09T23:39:09.212Z,26.12
2019-03-09T23:41:39.416Z,28.07
2019-03-09T23:44:09.266Z,29.60
2019-03-09T23:46:42.838Z,27.15
2019-03-09T23:49:12.629Z,25.60
2019-03-09T23:51:43.471Z,27.27
2019-03-09T23:54:13.367Z,27.17
2019-03-09T23:56:44.242Z,24.95
2019-03-09T23:59:13.964Z,31.25
